sensor_id;sensor_type;location;lat;lon;timestamp;temperature;humidity
45329;DHT22;72636;48.160;11.428;2023-12-07T00:00:34;2.30;99.90
45329;DHT22;72636;48.160;11.428;2023-12-07T00:03:00;2.30;99.90
45329;DHT22;72636;48.160;11.428;2023-12-07T00:05:26;2.20;99.90
45329;DHT22;72636;48.160;11.428;2023-12-07T00:07:52;2.20;99.90
45329;DHT22;72636;48.160;11.428;2023-12-07T00:10:17;2.20;99.90
45329;DHT22;72636;48.160;11.428;2023-12-07T00:12:43;2.10;99.90
45329;DHT22;72636;48.160;11.428;2023-12-07T00:15:09;2.10;99.90
45329;DHT22;72636;48.160;11.428;2023-12-07T00:17:34;2.00;99.90
45329;DHT22;72636;48.160;11.428;2023-12-07T00:20:00;2.00;99.90
45329;DHT22;72636;48.160;11.428;2023-12-07T00:22:26;2.00;99.90
45329;DHT22;72636;48.160;11.428;2023-12-07T00:24:53;2.00;99.90
45329;DHT22;72636;48.160;11.428;2023-12-07T00:27:19;2.00;99.90
45329;DHT22;72636;48.160;11.428;2023-12-07T00:29:45;2.00;99.90
45329;DHT22;72636;48.160;11.428;2023-12-07T00:32:10;1.90;99.90
45329;DHT22;72636;48.160;11.428;2023-12-07T00:34:36;1.90;99.90
45329;DHT22;72636;48.160;11.428;2023-12-07T00:37:02;1.90;99.90
45329;DHT22;72636;48.160;11.428;2023-12-07T00:39:28;1.90;99.90
45329;DHT22;72636;48.160;11.428;2023-12-07T00:41:54;1.90;99.90
45329;DHT22;72636;48.160;11.428;2023-12-07T00:44:20;1.90;99.90
45329;DHT22;72636;48.160;11.428;2023-12-07T00:46:45;1.80;99.90
45329;DHT22;72636;48.160;11.428;2023-12-07T00:49:11;1.80;99.90
45329;DHT22;72636;48.160;11.428;2023-12-07T00:51:37;1.80;99.90
45329;DHT22;72636;48.160;11.428;2023-12-07T00:54:03;1.70;99.90
45329;DHT22;72636;48.160;11.428;2023-12-07T00:56:29;1.70;99.90
45329;DHT22;72636;48.160;11.428;2023-12-07T00:58:54;1.70;99.90
45329;DHT22;72636;48.160;11.428;2023-12-07T01:01:20;1.70;99.90
45329;DHT22;72636;48.160;11.428;2023-12-07T01:03:46;1.60;99.90
45329;DHT22;72636;48.160;11.428;2023-12-07T01:06:11;1.60;99.90
45329;DHT22;72636;48.160;11.428;2023-12-07T01:08:37;1.50;99.90
45329;DHT22;72636;48.160;11.428;2023-12-07T01:11:04;1.50;99.90
45329;DHT22;72636;48.160;11.428;2023-12-07T01:13:30;1.50;99.90
45329;DHT22;72636;48.160;11.428;2023-12-07T01:15:56;1.40;99.90
45329;DHT22;72636;48.160;11.428;2023-12-07T01:18:22;1.40;99.90
45329;DHT22;72636;48.160;11.428;2023-12-07T01:20:47;1.30;99.90
45329;DHT22;72636;48.160;11.428;2023-12-07T01:23:14;1.30;99.90
45329;DHT22;72636;48.160;11.428;2023-12-07T01:25:40;1.20;99.90
45329;DHT22;72636;48.160;11.428;2023-12-07T01:28:05;1.20;99.90
45329;DHT22;72636;48.160;11.428;2023-12-07T01:30:31;1.20;99.90
45329;DHT22;72636;48.160;11.428;2023-12-07T01:32:56;1.10;99.90
45329;DHT22;72636;48.160;11.428;2023-12-07T01:35:22;1.10;99.90
45329;DHT22;72636;48.160;11.428;2023-12-07T01:37:48;1.10;99.90
45329;DHT22;72636;48.160;11.428;2023-12-07T01:40:14;1.00;99.90
45329;DHT22;72636;48.160;11.428;2023-12-07T01:42:42;1.00;99.90
45329;DHT22;72636;48.160;11.428;2023-12-07T01:45:14;1.00;99.90
45329;DHT22;72636;48.160;11.428;2023-12-07T01:47:41;0.90;99.90
45329;DHT22;72636;48.160;11.428;2023-12-07T01:50:08;0.90;99.90
45329;DHT22;72636;48.160;11.428;2023-12-07T01:52:38;0.90;99.90
45329;DHT22;72636;48.160;11.428;2023-12-07T01:55:04;0.90;99.90
45329;DHT22;72636;48.160;11.428;2023-12-07T01:57:30;0.80;99.90
45329;DHT22;72636;48.160;11.428;2023-12-07T01:59:56;0.80;99.90
45329;DHT22;72636;48.160;11.428;2023-12-07T02:02:22;0.80;99.90
45329;DHT22;72636;48.160;11.428;2023-12-07T02:04:48;0.80;99.90
45329;DHT22;72636;48.160;11.428;2023-12-07T02:07:14;0.70;99.90
45329;DHT22;72636;48.160;11.428;2023-12-07T02:09:40;0.70;99.90
45329;DHT22;72636;48.160;11.428;2023-12-07T02:12:06;0.70;99.90
45329;DHT22;72636;48.160;11.428;2023-12-07T02:14:31;0.70;99.90
45329;DHT22;72636;48.160;11.428;2023-12-07T02:19:47;0.60;99.90
45329;DHT22;72636;48.160;11.428;2023-12-07T02:22:42;0.60;99.90
45329;DHT22;72636;48.160;11.428;2023-12-07T02:25:14;0.50;99.90
45329;DHT22;72636;48.160;11.428;2023-12-07T02:27:41;0.50;99.90
45329;DHT22;72636;48.160;11.428;2023-12-07T02:30:09;0.50;99.90
45329;DHT22;72636;48.160;11.428;2023-12-07T02:32:39;0.50;99.90
45329;DHT22;72636;48.160;11.428;2023-12-07T02:35:06;0.50;99.90
45329;DHT22;72636;48.160;11.428;2023-12-07T02:37:37;0.50;99.90
45329;DHT22;72636;48.160;11.428;2023-12-07T02:40:07;0.50;99.90
45329;DHT22;72636;48.160;11.428;2023-12-07T02:42:38;0.40;99.90
45329;DHT22;72636;48.160;11.428;2023-12-07T02:45:10;0.40;99.90
45329;DHT22;72636;48.160;11.428;2023-12-07T02:47:36;0.40;99.90
45329;DHT22;72636;48.160;11.428;2023-12-07T02:50:03;0.40;99.90
45329;DHT22;72636;48.160;11.428;2023-12-07T02:52:29;0.40;99.90
45329;DHT22;72636;48.160;11.428;2023-12-07T02:54:55;0.40;99.90
45329;DHT22;72636;48.160;11.428;2023-12-07T02:57:21;0.40;99.90
45329;DHT22;72636;48.160;11.428;2023-12-07T02:59:46;0.40;99.90
45329;DHT22;72636;48.160;11.428;2023-12-07T03:02:12;0.30;99.90
45329;DHT22;72636;48.160;11.428;2023-12-07T03:04:38;0.40;99.90
45329;DHT22;72636;48.160;11.428;2023-12-07T03:07:03;0.30;99.90
45329;DHT22;72636;48.160;11.428;2023-12-07T03:09:29;0.40;99.90
45329;DHT22;72636;48.160;11.428;2023-12-07T03:11:54;0.40;99.90
45329;DHT22;72636;48.160;11.428;2023-12-07T03:14:20;0.40;99.90
45329;DHT22;72636;48.160;11.428;2023-12-07T03:16:46;0.40;99.90
45329;DHT22;72636;48.160;11.428;2023-12-07T03:19:11;0.40;99.90
45329;DHT22;72636;48.160;11.428;2023-12-07T03:21:41;0.50;99.90
45329;DHT22;72636;48.160;11.428;2023-12-07T03:24:10;0.50;99.90
45329;DHT22;72636;48.160;11.428;2023-12-07T03:26:39;0.50;99.90
45329;DHT22;72636;48.160;11.428;2023-12-07T03:29:05;0.50;99.90
45329;DHT22;72636;48.160;11.428;2023-12-07T03:31:31;0.60;99.90
45329;DHT22;72636;48.160;11.428;2023-12-07T03:33:56;0.60;99.90
45329;DHT22;72636;48.160;11.428;2023-12-07T03:36:23;0.60;99.90
45329;DHT22;72636;48.160;11.428;2023-12-07T03:38:49;0.60;99.90
45329;DHT22;72636;48.160;11.428;2023-12-07T03:41:15;0.70;99.90
45329;DHT22;72636;48.160;11.428;2023-12-07T03:43:40;0.70;99.90
45329;DHT22;72636;48.160;11.428;2023-12-07T03:46:09;0.70;99.90
45329;DHT22;72636;48.160;11.428;2023-12-07T03:48:34;0.70;99.90
45329;DHT22;72636;48.160;11.428;2023-12-07T03:51:00;0.70;99.90
45329;DHT22;72636;48.160;11.428;2023-12-07T03:53:27;0.70;99.90
45329;DHT22;72636;48.160;11.428;2023-12-07T03:55:54;0.80;99.90
45329;DHT22;72636;48.160;11.428;2023-12-07T03:58:19;0.80;99.90
45329;DHT22;72636;48.160;11.428;2023-12-07T04:00:45;0.80;99.90
45329;DHT22;72636;48.160;11.428;2023-12-07T04:03:11;0.80;99.90
45329;DHT22;72636;48.160;11.428;2023-12-07T04:05:38;0.80;99.90
45329;DHT22;72636;48.160;11.428;2023-12-07T04:08:03;0.80;99.90
45329;DHT22;72636;48.160;11.428;2023-12-07T04:10:32;0.70;99.90
45329;DHT22;72636;48.160;11.428;2023-12-07T04:12:57;0.70;99.90
45329;DHT22;72636;48.160;11.428;2023-12-07T04:15:23;0.70;99.90
45329;DHT22;72636;48.160;11.428;2023-12-07T04:17:49;0.70;99.90
45329;DHT22;72636;48.160;11.428;2023-12-07T04:20:15;0.60;99.90
45329;DHT22;72636;48.160;11.428;2023-12-07T04:22:41;0.60;99.90
45329;DHT22;72636;48.160;11.428;2023-12-07T04:25:07;0.60;99.90
45329;DHT22;72636;48.160;11.428;2023-12-07T04:27:33;0.50;99.90
45329;DHT22;72636;48.160;11.428;2023-12-07T04:29:59;0.50;99.90
45329;DHT22;72636;48.160;11.428;2023-12-07T04:32:25;0.50;99.90
45329;DHT22;72636;48.160;11.428;2023-12-07T04:34:51;0.40;99.90
45329;DHT22;72636;48.160;11.428;2023-12-07T04:37:17;0.40;99.90
45329;DHT22;72636;48.160;11.428;2023-12-07T04:39:43;0.40;99.90
45329;DHT22;72636;48.160;11.428;2023-12-07T04:42:08;0.40;99.90
45329;DHT22;72636;48.160;11.428;2023-12-07T04:44:34;0.30;99.90
45329;DHT22;72636;48.160;11.428;2023-12-07T04:47:00;0.40;99.90
45329;DHT22;72636;48.160;11.428;2023-12-07T04:49:26;0.40;99.90
45329;DHT22;72636;48.160;11.428;2023-12-07T04:51:51;0.30;99.90
45329;DHT22;72636;48.160;11.428;2023-12-07T04:54:17;0.40;99.90
45329;DHT22;72636;48.160;11.428;2023-12-07T04:56:43;0.40;99.90
45329;DHT22;72636;48.160;11.428;2023-12-07T04:59:12;0.40;99.90
45329;DHT22;72636;48.160;11.428;2023-12-07T05:01:38;0.40;99.90
45329;DHT22;72636;48.160;11.428;2023-12-07T05:04:04;0.40;99.90
45329;DHT22;72636;48.160;11.428;2023-12-07T05:06:31;0.40;99.90
45329;DHT22;72636;48.160;11.428;2023-12-07T05:08:56;0.40;99.90
45329;DHT22;72636;48.160;11.428;2023-12-07T05:11:22;0.40;99.90
45329;DHT22;72636;48.160;11.428;2023-12-07T05:13:48;0.30;99.90
45329;DHT22;72636;48.160;11.428;2023-12-07T05:16:13;0.30;99.90
45329;DHT22;72636;48.160;11.428;2023-12-07T05:18:39;0.30;99.90
45329;DHT22;72636;48.160;11.428;2023-12-07T05:21:05;0.30;99.90
45329;DHT22;72636;48.160;11.428;2023-12-07T05:23:31;0.30;99.90
45329;DHT22;72636;48.160;11.428;2023-12-07T05:25:57;0.30;99.90
45329;DHT22;72636;48.160;11.428;2023-12-07T05:28:22;0.30;99.90
45329;DHT22;72636;48.160;11.428;2023-12-07T05:30:48;0.30;99.90
45329;DHT22;72636;48.160;11.428;2023-12-07T05:33:15;0.30;99.90
45329;DHT22;72636;48.160;11.428;2023-12-07T05:35:40;0.30;99.90
45329;DHT22;72636;48.160;11.428;2023-12-07T05:38:06;0.20;99.90
45329;DHT22;72636;48.160;11.428;2023-12-07T05:40:32;0.20;99.90
45329;DHT22;72636;48.160;11.428;2023-12-07T05:42:59;0.20;99.90
45329;DHT22;72636;48.160;11.428;2023-12-07T05:45:25;0.20;99.90
45329;DHT22;72636;48.160;11.428;2023-12-07T05:47:51;0.20;99.90
45329;DHT22;72636;48.160;11.428;2023-12-07T05:50:17;0.10;99.90
45329;DHT22;72636;48.160;11.428;2023-12-07T05:52:43;0.10;99.90
45329;DHT22;72636;48.160;11.428;2023-12-07T05:55:09;0.10;99.90
45329;DHT22;72636;48.160;11.428;2023-12-07T05:57:35;0.00;99.90
45329;DHT22;72636;48.160;11.428;2023-12-07T06:00:00;0.00;99.90
45329;DHT22;72636;48.160;11.428;2023-12-07T06:02:26;0.00;99.90
45329;DHT22;72636;48.160;11.428;2023-12-07T06:04:52;0.00;99.90
45329;DHT22;72636;48.160;11.428;2023-12-07T06:07:18;-0.10;99.90
45329;DHT22;72636;48.160;11.428;2023-12-07T06:09:44;-0.10;99.90
45329;DHT22;72636;48.160;11.428;2023-12-07T06:12:10;-0.10;99.90
45329;DHT22;72636;48.160;11.428;2023-12-07T06:14:35;-0.10;99.90
45329;DHT22;72636;48.160;11.428;2023-12-07T06:17:01;-0.20;99.90
45329;DHT22;72636;48.160;11.428;2023-12-07T06:19:26;-0.20;99.90
45329;DHT22;72636;48.160;11.428;2023-12-07T06:21:52;-0.20;99.90
45329;DHT22;72636;48.160;11.428;2023-12-07T06:24:18;-0.30;99.90
45329;DHT22;72636;48.160;11.428;2023-12-07T06:26:43;-0.30;99.90
45329;DHT22;72636;48.160;11.428;2023-12-07T06:29:09;-0.30;99.90
45329;DHT22;72636;48.160;11.428;2023-12-07T06:31:35;-0.30;99.90
45329;DHT22;72636;48.160;11.428;2023-12-07T06:34:01;-0.40;99.90
45329;DHT22;72636;48.160;11.428;2023-12-07T06:36:26;-0.40;99.90
45329;DHT22;72636;48.160;11.428;2023-12-07T06:38:53;-0.40;99.90
45329;DHT22;72636;48.160;11.428;2023-12-07T06:41:20;-0.40;99.90
45329;DHT22;72636;48.160;11.428;2023-12-07T06:43:46;-0.40;99.90
45329;DHT22;72636;48.160;11.428;2023-12-07T06:46:12;-0.50;99.90
45329;DHT22;72636;48.160;11.428;2023-12-07T06:48:38;-0.50;99.90
45329;DHT22;72636;48.160;11.428;2023-12-07T06:51:04;-0.50;99.90
45329;DHT22;72636;48.160;11.428;2023-12-07T06:53:29;-0.50;99.90
45329;DHT22;72636;48.160;11.428;2023-12-07T06:55:57;-0.50;99.90
45329;DHT22;72636;48.160;11.428;2023-12-07T06:58:22;-0.60;99.90
45329;DHT22;72636;48.160;11.428;2023-12-07T07:00:48;-0.60;99.90
45329;DHT22;72636;48.160;11.428;2023-12-07T07:03:14;-0.60;99.90
45329;DHT22;72636;48.160;11.428;2023-12-07T07:05:41;-0.60;99.90
45329;DHT22;72636;48.160;11.428;2023-12-07T07:08:06;-0.60;99.90
45329;DHT22;72636;48.160;11.428;2023-12-07T07:10:34;-0.60;99.90
45329;DHT22;72636;48.160;11.428;2023-12-07T07:13:00;-0.60;99.90
45329;DHT22;72636;48.160;11.428;2023-12-07T07:15:30;-0.70;99.90
45329;DHT22;72636;48.160;11.428;2023-12-07T07:17:55;-0.70;99.90
45329;DHT22;72636;48.160;11.428;2023-12-07T07:20:21;-0.70;99.90
45329;DHT22;72636;48.160;11.428;2023-12-07T07:22:47;-0.70;99.90
45329;DHT22;72636;48.160;11.428;2023-12-07T07:25:13;-0.70;99.90
45329;DHT22;72636;48.160;11.428;2023-12-07T07:27:41;-0.70;99.90
45329;DHT22;72636;48.160;11.428;2023-12-07T07:30:07;-0.70;99.90
45329;DHT22;72636;48.160;11.428;2023-12-07T07:32:34;-0.70;99.90
45329;DHT22;72636;48.160;11.428;2023-12-07T07:34:59;-0.70;99.90
45329;DHT22;72636;48.160;11.428;2023-12-07T07:37:25;-0.60;99.90
45329;DHT22;72636;48.160;11.428;2023-12-07T07:39:51;-0.60;99.90
45329;DHT22;72636;48.160;11.428;2023-12-07T07:42:17;-0.60;99.90
45329;DHT22;72636;48.160;11.428;2023-12-07T07:44:43;-0.50;99.90
45329;DHT22;72636;48.160;11.428;2023-12-07T07:47:08;-0.50;99.90
45329;DHT22;72636;48.160;11.428;2023-12-07T07:49:34;-0.50;99.90
45329;DHT22;72636;48.160;11.428;2023-12-07T07:52:00;-0.40;99.90
45329;DHT22;72636;48.160;11.428;2023-12-07T07:54:26;-0.40;99.90
45329;DHT22;72636;48.160;11.428;2023-12-07T07:56:51;-0.40;99.90
45329;DHT22;72636;48.160;11.428;2023-12-07T07:59:17;-0.30;99.90
45329;DHT22;72636;48.160;11.428;2023-12-07T08:01:43;-0.30;99.90
45329;DHT22;72636;48.160;11.428;2023-12-07T08:04:10;-0.20;99.90
45329;DHT22;72636;48.160;11.428;2023-12-07T08:06:35;-0.10;99.90
45329;DHT22;72636;48.160;11.428;2023-12-07T08:09:01;-0.10;99.90
45329;DHT22;72636;48.160;11.428;2023-12-07T08:11:27;0.00;99.90
45329;DHT22;72636;48.160;11.428;2023-12-07T08:13:53;0.10;99.90
45329;DHT22;72636;48.160;11.428;2023-12-07T08:16:19;0.20;99.90
45329;DHT22;72636;48.160;11.428;2023-12-07T08:18:44;0.30;99.90
45329;DHT22;72636;48.160;11.428;2023-12-07T08:21:19;0.30;99.90
45329;DHT22;72636;48.160;11.428;2023-12-07T08:23:45;0.50;99.90
45329;DHT22;72636;48.160;11.428;2023-12-07T08:26:11;0.60;99.90
45329;DHT22;72636;48.160;11.428;2023-12-07T08:28:36;0.70;99.90
45329;DHT22;72636;48.160;11.428;2023-12-07T08:31:02;0.80;99.90
45329;DHT22;72636;48.160;11.428;2023-12-07T08:33:27;1.00;99.90
45329;DHT22;72636;48.160;11.428;2023-12-07T08:35:54;1.20;99.90
45329;DHT22;72636;48.160;11.428;2023-12-07T08:38:20;1.40;99.90
45329;DHT22;72636;48.160;11.428;2023-12-07T08:40:47;1.70;99.90
45329;DHT22;72636;48.160;11.428;2023-12-07T08:43:13;2.00;99.90
45329;DHT22;72636;48.160;11.428;2023-12-07T08:45:39;2.20;99.90
45329;DHT22;72636;48.160;11.428;2023-12-07T08:48:05;2.30;99.90
45329;DHT22;72636;48.160;11.428;2023-12-07T08:50:31;2.40;99.90
45329;DHT22;72636;48.160;11.428;2023-12-07T08:52:56;2.40;99.90
45329;DHT22;72636;48.160;11.428;2023-12-07T08:55:22;2.40;99.90
45329;DHT22;72636;48.160;11.428;2023-12-07T08:57:47;2.40;99.90
45329;DHT22;72636;48.160;11.428;2023-12-07T09:00:13;2.50;99.90
45329;DHT22;72636;48.160;11.428;2023-12-07T09:02:39;2.50;99.90
45329;DHT22;72636;48.160;11.428;2023-12-07T09:05:05;2.70;99.90
45329;DHT22;72636;48.160;11.428;2023-12-07T09:07:31;2.80;99.90
45329;DHT22;72636;48.160;11.428;2023-12-07T09:09:57;2.90;99.90
45329;DHT22;72636;48.160;11.428;2023-12-07T09:12:22;3.10;99.90
45329;DHT22;72636;48.160;11.428;2023-12-07T09:14:48;3.40;99.90
45329;DHT22;72636;48.160;11.428;2023-12-07T09:17:13;3.80;99.90
45329;DHT22;72636;48.160;11.428;2023-12-07T09:19:39;4.30;99.90
45329;DHT22;72636;48.160;11.428;2023-12-07T09:22:05;4.70;99.90
45329;DHT22;72636;48.160;11.428;2023-12-07T09:24:31;5.40;99.90
45329;DHT22;72636;48.160;11.428;2023-12-07T09:26:56;6.00;99.90
45329;DHT22;72636;48.160;11.428;2023-12-07T09:29:22;6.60;99.90
45329;DHT22;72636;48.160;11.428;2023-12-07T09:31:47;7.10;99.90
45329;DHT22;72636;48.160;11.428;2023-12-07T09:34:14;7.60;99.90
45329;DHT22;72636;48.160;11.428;2023-12-07T09:36:43;8.00;99.90
45329;DHT22;72636;48.160;11.428;2023-12-07T09:39:09;8.50;99.90
45329;DHT22;72636;48.160;11.428;2023-12-07T09:41:36;8.90;99.90
45329;DHT22;72636;48.160;11.428;2023-12-07T09:44:03;9.40;99.90
45329;DHT22;72636;48.160;11.428;2023-12-07T09:46:30;9.90;99.90
45329;DHT22;72636;48.160;11.428;2023-12-07T09:48:56;10.30;96.20
45329;DHT22;72636;48.160;11.428;2023-12-07T09:51:22;10.70;94.60
45329;DHT22;72636;48.160;11.428;2023-12-07T09:53:50;10.90;83.80
45329;DHT22;72636;48.160;11.428;2023-12-07T09:56:18;11.20;77.60
45329;DHT22;72636;48.160;11.428;2023-12-07T09:58:44;11.50;60.60
45329;DHT22;72636;48.160;11.428;2023-12-07T10:01:09;11.70;64.70
45329;DHT22;72636;48.160;11.428;2023-12-07T10:03:39;12.00;66.30
45329;DHT22;72636;48.160;11.428;2023-12-07T10:06:04;12.50;54.80
45329;DHT22;72636;48.160;11.428;2023-12-07T10:08:33;12.80;51.80
45329;DHT22;72636;48.160;11.428;2023-12-07T10:11:11;13.20;44.90
45329;DHT22;72636;48.160;11.428;2023-12-07T10:13:38;13.50;46.30
45329;DHT22;72636;48.160;11.428;2023-12-07T10:16:12;14.10;44.70
45329;DHT22;72636;48.160;11.428;2023-12-07T10:18:39;14.70;37.80
45329;DHT22;72636;48.160;11.428;2023-12-07T10:21:06;15.00;33.50
45329;DHT22;72636;48.160;11.428;2023-12-07T10:23:33;15.50;29.60
45329;DHT22;72636;48.160;11.428;2023-12-07T10:25:59;15.80;34.70
45329;DHT22;72636;48.160;11.428;2023-12-07T10:28:25;16.30;28.40
45329;DHT22;72636;48.160;11.428;2023-12-07T10:30:51;16.70;26.70
45329;DHT22;72636;48.160;11.428;2023-12-07T10:33:19;16.80;29.00
45329;DHT22;72636;48.160;11.428;2023-12-07T10:35:46;16.70;25.50
45329;DHT22;72636;48.160;11.428;2023-12-07T10:38:12;16.20;27.20
45329;DHT22;72636;48.160;11.428;2023-12-07T10:40:38;15.70;29.00
45329;DHT22;72636;48.160;11.428;2023-12-07T10:43:08;15.10;26.50
45329;DHT22;72636;48.160;11.428;2023-12-07T10:45:34;14.50;29.30
45329;DHT22;72636;48.160;11.428;2023-12-07T10:48:08;13.80;26.90
45329;DHT22;72636;48.160;11.428;2023-12-07T10:50:41;13.10;28.80
45329;DHT22;72636;48.160;11.428;2023-12-07T10:53:10;12.50;29.40
45329;DHT22;72636;48.160;11.428;2023-12-07T10:55:47;11.90;31.10
45329;DHT22;72636;48.160;11.428;2023-12-07T10:58:15;11.20;31.50
45329;DHT22;72636;48.160;11.428;2023-12-07T11:00:44;10.70;32.70
45329;DHT22;72636;48.160;11.428;2023-12-07T11:03:15;10.20;35.60
45329;DHT22;72636;48.160;11.428;2023-12-07T11:05:42;9.80;41.70
45329;DHT22;72636;48.160;11.428;2023-12-07T11:08:12;9.50;36.50
45329;DHT22;72636;48.160;11.428;2023-12-07T11:11:06;9.10;36.20
45329;DHT22;72636;48.160;11.428;2023-12-07T11:13:33;8.80;46.80
45329;DHT22;72636;48.160;11.428;2023-12-07T11:16:00;8.50;42.00
45329;DHT22;72636;48.160;11.428;2023-12-07T11:18:26;8.30;42.40
45329;DHT22;72636;48.160;11.428;2023-12-07T11:20:53;8.00;49.90
45329;DHT22;72636;48.160;11.428;2023-12-07T11:23:20;7.80;53.40
45329;DHT22;72636;48.160;11.428;2023-12-07T11:25:47;7.60;50.50
45329;DHT22;72636;48.160;11.428;2023-12-07T11:28:14;7.40;47.80
45329;DHT22;72636;48.160;11.428;2023-12-07T11:30:45;7.20;51.00
45329;DHT22;72636;48.160;11.428;2023-12-07T11:33:11;7.10;51.70
45329;DHT22;72636;48.160;11.428;2023-12-07T11:36:03;6.90;52.40
45329;DHT22;72636;48.160;11.428;2023-12-07T11:38:29;6.70;49.10
45329;DHT22;72636;48.160;11.428;2023-12-07T11:40:56;6.50;49.50
45329;DHT22;72636;48.160;11.428;2023-12-07T11:46:07;6.30;49.10
45329;DHT22;72636;48.160;11.428;2023-12-07T11:48:33;6.20;50.00
45329;DHT22;72636;48.160;11.428;2023-12-07T11:51:06;6.00;50.70
45329;DHT22;72636;48.160;11.428;2023-12-07T11:53:36;6.00;52.90
45329;DHT22;72636;48.160;11.428;2023-12-07T11:56:06;5.80;47.70
45329;DHT22;72636;48.160;11.428;2023-12-07T11:58:34;5.80;50.70
45329;DHT22;72636;48.160;11.428;2023-12-07T12:01:01;5.70;51.70
45329;DHT22;72636;48.160;11.428;2023-12-07T12:03:26;5.60;52.60
45329;DHT22;72636;48.160;11.428;2023-12-07T12:05:53;5.60;54.50
45329;DHT22;72636;48.160;11.428;2023-12-07T12:08:20;5.50;57.30
45329;DHT22;72636;48.160;11.428;2023-12-07T12:10:46;5.50;57.30
45329;DHT22;72636;48.160;11.428;2023-12-07T12:13:12;5.50;61.00
45329;DHT22;72636;48.160;11.428;2023-12-07T12:15:41;5.50;60.80
45329;DHT22;72636;48.160;11.428;2023-12-07T12:18:08;5.40;60.00
45329;DHT22;72636;48.160;11.428;2023-12-07T12:20:34;5.40;60.20
45329;DHT22;72636;48.160;11.428;2023-12-07T12:23:00;5.30;64.10
45329;DHT22;72636;48.160;11.428;2023-12-07T12:25:30;5.30;64.10
45329;DHT22;72636;48.160;11.428;2023-12-07T12:27:58;5.30;64.90
45329;DHT22;72636;48.160;11.428;2023-12-07T12:30:27;5.30;67.00
45329;DHT22;72636;48.160;11.428;2023-12-07T12:32:52;5.30;65.20
45329;DHT22;72636;48.160;11.428;2023-12-07T12:35:18;5.30;65.70
45329;DHT22;72636;48.160;11.428;2023-12-07T12:37:45;5.30;63.40
45329;DHT22;72636;48.160;11.428;2023-12-07T12:40:12;5.20;59.40
45329;DHT22;72636;48.160;11.428;2023-12-07T12:42:49;5.20;63.70
45329;DHT22;72636;48.160;11.428;2023-12-07T12:45:16;5.20;63.20
45329;DHT22;72636;48.160;11.428;2023-12-07T12:47:42;5.20;64.60
45329;DHT22;72636;48.160;11.428;2023-12-07T12:50:09;5.20;62.70
45329;DHT22;72636;48.160;11.428;2023-12-07T12:52:36;5.20;65.80
45329;DHT22;72636;48.160;11.428;2023-12-07T12:55:02;5.20;68.60
45329;DHT22;72636;48.160;11.428;2023-12-07T12:57:32;5.40;73.20
45329;DHT22;72636;48.160;11.428;2023-12-07T13:00:00;5.50;69.00
45329;DHT22;72636;48.160;11.428;2023-12-07T13:02:26;5.70;66.20
45329;DHT22;72636;48.160;11.428;2023-12-07T13:04:52;5.80;67.10
45329;DHT22;72636;48.160;11.428;2023-12-07T13:07:19;5.90;68.20
45329;DHT22;72636;48.160;11.428;2023-12-07T13:09:44;6.10;65.90
45329;DHT22;72636;48.160;11.428;2023-12-07T13:12:10;6.30;61.70
45329;DHT22;72636;48.160;11.428;2023-12-07T13:14:36;6.40;62.00
45329;DHT22;72636;48.160;11.428;2023-12-07T13:17:04;6.60;66.90
45329;DHT22;72636;48.160;11.428;2023-12-07T13:19:30;6.90;62.70
45329;DHT22;72636;48.160;11.428;2023-12-07T13:21:56;7.00;63.10
45329;DHT22;72636;48.160;11.428;2023-12-07T13:24:21;7.20;58.10
45329;DHT22;72636;48.160;11.428;2023-12-07T13:26:47;7.40;59.10
45329;DHT22;72636;48.160;11.428;2023-12-07T13:29:13;7.50;56.60
45329;DHT22;72636;48.160;11.428;2023-12-07T13:31:38;7.60;55.60
45329;DHT22;72636;48.160;11.428;2023-12-07T13:34:04;7.70;57.40
45329;DHT22;72636;48.160;11.428;2023-12-07T13:36:30;7.80;55.00
45329;DHT22;72636;48.160;11.428;2023-12-07T13:38:59;7.70;53.40
45329;DHT22;72636;48.160;11.428;2023-12-07T13:41:24;7.80;52.70
45329;DHT22;72636;48.160;11.428;2023-12-07T13:43:50;7.60;52.40
45329;DHT22;72636;48.160;11.428;2023-12-07T13:46:17;7.40;51.30
45329;DHT22;72636;48.160;11.428;2023-12-07T13:48:43;7.30;49.60
45329;DHT22;72636;48.160;11.428;2023-12-07T13:51:08;7.20;52.70
45329;DHT22;72636;48.160;11.428;2023-12-07T13:53:35;7.00;55.20
45329;DHT22;72636;48.160;11.428;2023-12-07T13:56:01;6.90;57.60
45329;DHT22;72636;48.160;11.428;2023-12-07T13:58:30;6.80;57.20
45329;DHT22;72636;48.160;11.428;2023-12-07T14:00:55;6.70;58.50
45329;DHT22;72636;48.160;11.428;2023-12-07T14:03:21;6.60;60.40
45329;DHT22;72636;48.160;11.428;2023-12-07T14:05:46;6.40;61.60
45329;DHT22;72636;48.160;11.428;2023-12-07T14:08:13;6.30;64.70
45329;DHT22;72636;48.160;11.428;2023-12-07T14:10:39;6.20;67.60
45329;DHT22;72636;48.160;11.428;2023-12-07T14:13:04;6.10;70.70
45329;DHT22;72636;48.160;11.428;2023-12-07T14:15:30;6.00;74.10
45329;DHT22;72636;48.160;11.428;2023-12-07T14:18:00;5.80;70.80
45329;DHT22;72636;48.160;11.428;2023-12-07T14:20:25;5.70;70.50
45329;DHT22;72636;48.160;11.428;2023-12-07T14:22:54;5.70;72.80
45329;DHT22;72636;48.160;11.428;2023-12-07T14:25:19;5.50;77.10
45329;DHT22;72636;48.160;11.428;2023-12-07T14:27:45;5.50;79.30
45329;DHT22;72636;48.160;11.428;2023-12-07T14:30:11;5.30;80.80
45329;DHT22;72636;48.160;11.428;2023-12-07T14:32:37;5.20;83.00
45329;DHT22;72636;48.160;11.428;2023-12-07T14:35:03;5.10;82.60
45329;DHT22;72636;48.160;11.428;2023-12-07T14:37:28;5.00;85.20
45329;DHT22;72636;48.160;11.428;2023-12-07T14:39:54;4.90;89.60
45329;DHT22;72636;48.160;11.428;2023-12-07T14:42:20;4.80;90.40
45329;DHT22;72636;48.160;11.428;2023-12-07T14:44:45;4.70;91.00
45329;DHT22;72636;48.160;11.428;2023-12-07T14:47:12;4.60;92.50
45329;DHT22;72636;48.160;11.428;2023-12-07T14:49:37;4.50;93.90
45329;DHT22;72636;48.160;11.428;2023-12-07T14:52:03;4.50;95.20
45329;DHT22;72636;48.160;11.428;2023-12-07T14:54:29;4.40;97.90
45329;DHT22;72636;48.160;11.428;2023-12-07T14:56:56;4.30;97.80
45329;DHT22;72636;48.160;11.428;2023-12-07T14:59:22;4.20;99.30
45329;DHT22;72636;48.160;11.428;2023-12-07T15:01:48;4.20;99.90
45329;DHT22;72636;48.160;11.428;2023-12-07T15:04:16;4.10;99.90
45329;DHT22;72636;48.160;11.428;2023-12-07T15:06:41;4.00;99.90
45329;DHT22;72636;48.160;11.428;2023-12-07T15:09:07;3.90;99.90
45329;DHT22;72636;48.160;11.428;2023-12-07T15:11:36;3.80;99.90
45329;DHT22;72636;48.160;11.428;2023-12-07T15:14:02;3.80;99.90
45329;DHT22;72636;48.160;11.428;2023-12-07T15:16:28;3.70;99.90
45329;DHT22;72636;48.160;11.428;2023-12-07T15:18:54;3.60;99.90
45329;DHT22;72636;48.160;11.428;2023-12-07T15:21:19;3.50;99.90
45329;DHT22;72636;48.160;11.428;2023-12-07T15:23:45;3.40;99.90
45329;DHT22;72636;48.160;11.428;2023-12-07T15:26:11;3.30;99.90
45329;DHT22;72636;48.160;11.428;2023-12-07T15:28:37;3.20;99.90